sensor_id;sensor_type;location;lat;lon;timestamp;pressure;altitude;pressure_sealevel;temperature;humidity
80712;BME280;70078;51.596;5.678;2023-10-08T00:00:46;102091.06;;;16.79;70.16
80712;BME280;70078;51.596;5.678;2023-10-08T00:03:13;102112.56;;;16.95;70.17
80712;BME280;70078;51.596;5.678;2023-10-08T00:05:39;102093.06;;;16.77;70.09
80712;BME280;70078;51.596;5.678;2023-10-08T00:08:06;102202.00;;;17.38;70.01
80712;BME280;70078;51.596;5.678;2023-10-08T00:10:38;102183.34;;;17.28;70.53
80712;BME280;70078;51.596;5.678;2023-10-08T00:13:07;102125.06;;;16.88;70.58
80712;BME280;70078;51.596;5.678;2023-10-08T00:15:35;102113.63;;;16.86;69.98
80712;BME280;70078;51.596;5.678;2023-10-08T00:18:05;102131.81;;;16.84;70.05
80712;BME280;70078;51.596;5.678;2023-10-08T00:20:32;102134.00;;;16.88;70.30
80712;BME280;70078;51.596;5.678;2023-10-08T00:23:07;102145.63;;;16.89;70.44
80712;BME280;70078;51.596;5.678;2023-10-08T00:25:35;102129.00;;;16.69;70.56
80712;BME280;70078;51.596;5.678;2023-10-08T00:28:07;102158.41;;;16.95;70.29
80712;BME280;70078;51.596;5.678;2023-10-08T00:30:38;102118.72;;;16.73;70.22
80712;BME280;70078;51.596;5.678;2023-10-08T00:33:04;102172.88;;;17.02;70.70
80712;BME280;70078;51.596;5.678;2023-10-08T00:35:30;102128.88;;;16.62;70.91
80712;BME280;70078;51.596;5.678;2023-10-08T00:37:55;102152.41;;;16.77;70.60
80712;BME280;70078;51.596;5.678;2023-10-08T00:40:35;102143.84;;;16.65;70.94
80712;BME280;70078;51.596;5.678;2023-10-08T00:43:01;102136.63;;;16.57;71.01
80712;BME280;70078;51.596;5.678;2023-10-08T00:45:29;102196.38;;;16.94;70.51
80712;BME280;70078;51.596;5.678;2023-10-08T00:47:56;102134.97;;;16.48;70.66
80712;BME280;70078;51.596;5.678;2023-10-08T00:50:21;102162.94;;;16.55;70.86
80712;BME280;70078;51.596;5.678;2023-10-08T00:52:56;102174.69;;;16.54;70.60
80712;BME280;70078;51.596;5.678;2023-10-08T00:55:25;102205.03;;;16.73;70.71
80712;BME280;70078;51.596;5.678;2023-10-08T00:57:57;102218.50;;;16.64;70.69
80712;BME280;70078;51.596;5.678;2023-10-08T01:00:25;102214.16;;;16.55;71.10
80712;BME280;70078;51.596;5.678;2023-10-08T01:02:58;102214.47;;;16.52;71.16
80712;BME280;70078;51.596;5.678;2023-10-08T01:05:27;102138.78;;;16.06;71.13
80712;BME280;70078;51.596;5.678;2023-10-08T01:08:12;102136.09;;;15.90;71.27
80712;BME280;70078;51.596;5.678;2023-10-08T01:10:43;102213.50;;;16.37;71.54
80712;BME280;70078;51.596;5.678;2023-10-08T01:13:13;102130.06;;;15.88;71.88
80712;BME280;70078;51.596;5.678;2023-10-08T01:15:45;102178.00;;;16.17;71.91
80712;BME280;70078;51.596;5.678;2023-10-08T01:18:15;102141.66;;;15.97;71.89
80712;BME280;70078;51.596;5.678;2023-10-08T01:20:41;102162.66;;;16.01;72.25
80712;BME280;70078;51.596;5.678;2023-10-08T01:23:12;102192.97;;;16.20;72.03
80712;BME280;70078;51.596;5.678;2023-10-08T01:25:51;102194.00;;;16.19;72.30
80712;BME280;70078;51.596;5.678;2023-10-08T01:28:19;102146.38;;;15.95;71.95
80712;BME280;70078;51.596;5.678;2023-10-08T01:30:58;102188.94;;;16.16;72.58
80712;BME280;70078;51.596;5.678;2023-10-08T01:33:26;102189.94;;;16.15;72.58
80712;BME280;70078;51.596;5.678;2023-10-08T01:36:03;102121.81;;;15.81;72.60
80712;BME280;70078;51.596;5.678;2023-10-08T01:38:32;102159.97;;;16.09;72.17
80712;BME280;70078;51.596;5.678;2023-10-08T01:41:01;102173.78;;;16.06;72.62
80712;BME280;70078;51.596;5.678;2023-10-08T01:43:29;102156.97;;;15.96;72.59
80712;BME280;70078;51.596;5.678;2023-10-08T01:45:55;102180.53;;;16.02;72.68
80712;BME280;70078;51.596;5.678;2023-10-08T01:48:20;102139.28;;;15.77;73.18
80712;BME280;70078;51.596;5.678;2023-10-08T01:50:57;102149.22;;;15.77;73.05
80712;BME280;70078;51.596;5.678;2023-10-08T01:53:29;102145.34;;;15.71;73.14
80712;BME280;70078;51.596;5.678;2023-10-08T01:55:55;102083.75;;;15.36;72.96
80712;BME280;70078;51.596;5.678;2023-10-08T01:58:21;102109.31;;;15.56;73.01
80712;BME280;70078;51.596;5.678;2023-10-08T02:00:48;102176.66;;;15.89;72.98
80712;BME280;70078;51.596;5.678;2023-10-08T02:03:16;102107.31;;;15.42;73.07
80712;BME280;70078;51.596;5.678;2023-10-08T02:05:43;102111.50;;;15.44;73.14
80712;BME280;70078;51.596;5.678;2023-10-08T02:08:10;102143.97;;;15.59;73.07
80712;BME280;70078;51.596;5.678;2023-10-08T02:10:41;102206.13;;;15.90;73.07
80712;BME280;70078;51.596;5.678;2023-10-08T02:13:08;102175.84;;;15.72;73.40
80712;BME280;70078;51.596;5.678;2023-10-08T02:15:43;102211.00;;;15.95;73.36
80712;BME280;70078;51.596;5.678;2023-10-08T02:18:08;102120.41;;;15.53;73.17
80712;BME280;70078;51.596;5.678;2023-10-08T02:20:34;102135.25;;;15.57;73.65
80712;BME280;70078;51.596;5.678;2023-10-08T02:22:59;102192.31;;;15.93;73.45
80712;BME280;70078;51.596;5.678;2023-10-08T02:25:25;102108.63;;;15.46;73.61
80712;BME280;70078;51.596;5.678;2023-10-08T02:27:51;102117.72;;;15.45;73.37
80712;BME280;70078;51.596;5.678;2023-10-08T02:30:17;102152.59;;;15.63;73.55
80712;BME280;70078;51.596;5.678;2023-10-08T02:32:43;102139.63;;;15.58;73.39
80712;BME280;70078;51.596;5.678;2023-10-08T02:35:09;102196.38;;;15.89;73.70
80712;BME280;70078;51.596;5.678;2023-10-08T02:37:37;102145.84;;;15.50;73.93
80712;BME280;70078;51.596;5.678;2023-10-08T02:40:09;102170.41;;;15.64;73.95
80712;BME280;70078;51.596;5.678;2023-10-08T02:42:54;102222.28;;;15.90;73.59
80712;BME280;70078;51.596;5.678;2023-10-08T02:45:28;102189.59;;;15.69;73.89
80712;BME280;70078;51.596;5.678;2023-10-08T02:47:54;102181.19;;;15.64;73.87
80712;BME280;70078;51.596;5.678;2023-10-08T02:50:21;102169.34;;;15.48;73.98
80712;BME280;70078;51.596;5.678;2023-10-08T02:52:48;102190.22;;;15.54;74.31
80712;BME280;70078;51.596;5.678;2023-10-08T02:55:15;102210.66;;;15.65;74.30
80712;BME280;70078;51.596;5.678;2023-10-08T02:57:59;102199.81;;;15.49;74.36
80712;BME280;70078;51.596;5.678;2023-10-08T03:00:24;102198.66;;;15.51;74.15
80712;BME280;70078;51.596;5.678;2023-10-08T03:02:56;102246.16;;;15.77;74.48
80712;BME280;70078;51.596;5.678;2023-10-08T03:05:22;102181.78;;;15.41;74.48
80712;BME280;70078;51.596;5.678;2023-10-08T03:07:47;102146.78;;;15.33;74.30
80712;BME280;70078;51.596;5.678;2023-10-08T03:10:16;102139.72;;;15.24;74.30
80712;BME280;70078;51.596;5.678;2023-10-08T03:12:44;102210.47;;;15.67;74.51
80712;BME280;70078;51.596;5.678;2023-10-08T03:15:12;102192.44;;;15.51;74.60
80712;BME280;70078;51.596;5.678;2023-10-08T03:17:39;102174.41;;;15.43;74.42
80712;BME280;70078;51.596;5.678;2023-10-08T03:20:17;102139.72;;;15.16;74.80
80712;BME280;70078;51.596;5.678;2023-10-08T03:23:03;102190.38;;;15.45;74.90
80712;BME280;70078;51.596;5.678;2023-10-08T03:25:32;102186.47;;;15.31;74.62
80712;BME280;70078;51.596;5.678;2023-10-08T03:28:07;102172.38;;;15.29;74.90
80712;BME280;70078;51.596;5.678;2023-10-08T03:30:33;102175.22;;;15.19;75.16
80712;BME280;70078;51.596;5.678;2023-10-08T03:33:13;102182.75;;;15.16;75.19
80712;BME280;70078;51.596;5.678;2023-10-08T03:35:47;102106.47;;;14.66;75.46
80712;BME280;70078;51.596;5.678;2023-10-08T03:38:12;102191.88;;;15.31;75.31
80712;BME280;70078;51.596;5.678;2023-10-08T03:40:47;102118.31;;;14.90;75.51
80712;BME280;70078;51.596;5.678;2023-10-08T03:43:23;102064.94;;;14.61;75.56
80712;BME280;70078;51.596;5.678;2023-10-08T03:45:59;102164.03;;;14.98;75.71
80712;BME280;70078;51.596;5.678;2023-10-08T03:48:25;102176.31;;;15.01;75.49
80712;BME280;70078;51.596;5.678;2023-10-08T03:50:50;102246.81;;;15.63;75.70
80712;BME280;70078;51.596;5.678;2023-10-08T03:53:32;102225.19;;;15.38;75.63
80712;BME280;70078;51.596;5.678;2023-10-08T03:56:02;102188.78;;;15.18;75.72
80712;BME280;70078;51.596;5.678;2023-10-08T03:58:30;102176.84;;;15.04;75.68
80712;BME280;70078;51.596;5.678;2023-10-08T04:01:03;102179.00;;;15.01;75.80
80712;BME280;70078;51.596;5.678;2023-10-08T04:03:35;102215.41;;;15.29;75.59
80712;BME280;70078;51.596;5.678;2023-10-08T04:06:16;102169.66;;;15.21;75.53
80712;BME280;70078;51.596;5.678;2023-10-08T04:08:41;102150.75;;;14.96;75.93
80712;BME280;70078;51.596;5.678;2023-10-08T04:11:23;102210.69;;;15.23;76.15
80712;BME280;70078;51.596;5.678;2023-10-08T04:14:04;102210.84;;;15.21;76.25
80712;BME280;70078;51.596;5.678;2023-10-08T04:16:32;102134.69;;;14.70;76.27
80712;BME280;70078;51.596;5.678;2023-10-08T04:19:02;102171.41;;;14.96;76.31
80712;BME280;70078;51.596;5.678;2023-10-08T04:21:29;102170.25;;;14.98;76.72
80712;BME280;70078;51.596;5.678;2023-10-08T04:23:55;102213.38;;;15.23;76.35
80712;BME280;70078;51.596;5.678;2023-10-08T04:26:22;102210.28;;;15.10;76.59
80712;BME280;70078;51.596;5.678;2023-10-08T04:28:55;102185.66;;;14.88;76.33
80712;BME280;70078;51.596;5.678;2023-10-08T04:31:23;102237.09;;;15.19;76.55
80712;BME280;70078;51.596;5.678;2023-10-08T04:33:54;102274.31;;;15.48;76.72
80712;BME280;70078;51.596;5.678;2023-10-08T04:36:25;102223.63;;;15.19;76.61
80712;BME280;70078;51.596;5.678;2023-10-08T04:38:51;102242.31;;;15.29;76.51
80712;BME280;70078;51.596;5.678;2023-10-08T04:41:22;102249.03;;;15.33;76.47
80712;BME280;70078;51.596;5.678;2023-10-08T04:43:53;102188.03;;;14.91;76.66
80712;BME280;70078;51.596;5.678;2023-10-08T04:46:20;102293.50;;;15.45;76.64
80712;BME280;70078;51.596;5.678;2023-10-08T04:49:01;102259.28;;;15.21;76.50
80712;BME280;70078;51.596;5.678;2023-10-08T04:51:31;102306.31;;;15.51;76.89
80712;BME280;70078;51.596;5.678;2023-10-08T04:54:00;102318.97;;;15.59;76.65
80712;BME280;70078;51.596;5.678;2023-10-08T04:56:30;102321.47;;;15.61;75.79
80712;BME280;70078;51.596;5.678;2023-10-08T04:58:58;102262.19;;;15.36;76.13
80712;BME280;70078;51.596;5.678;2023-10-08T05:01:23;102253.59;;;15.33;76.08
80712;BME280;70078;51.596;5.678;2023-10-08T05:04:03;102303.88;;;15.66;75.80
80712;BME280;70078;51.596;5.678;2023-10-08T05:06:30;102302.31;;;15.64;76.12
80712;BME280;70078;51.596;5.678;2023-10-08T05:09:10;102288.47;;;15.50;75.99
80712;BME280;70078;51.596;5.678;2023-10-08T05:11:51;102298.91;;;15.53;75.74
80712;BME280;70078;51.596;5.678;2023-10-08T05:14:21;102287.09;;;15.46;75.59
80712;BME280;70078;51.596;5.678;2023-10-08T05:16:59;102273.63;;;15.38;75.83
80712;BME280;70078;51.596;5.678;2023-10-08T05:19:43;102284.25;;;15.48;75.34
80712;BME280;70078;51.596;5.678;2023-10-08T05:22:27;102248.34;;;15.23;75.55
80712;BME280;70078;51.596;5.678;2023-10-08T05:24:52;102299.63;;;15.64;75.41
80712;BME280;70078;51.596;5.678;2023-10-08T05:27:37;102296.38;;;15.52;75.75
80712;BME280;70078;51.596;5.678;2023-10-08T05:30:28;102297.38;;;15.43;76.11
80712;BME280;70078;51.596;5.678;2023-10-08T05:33:08;102306.28;;;15.43;76.68
80712;BME280;70078;51.596;5.678;2023-10-08T05:35:40;102300.53;;;15.38;76.87
80712;BME280;70078;51.596;5.678;2023-10-08T05:38:06;102249.50;;;15.12;76.87
80712;BME280;70078;51.596;5.678;2023-10-08T05:40:42;102259.47;;;15.28;76.85
80712;BME280;70078;51.596;5.678;2023-10-08T05:43:27;102279.34;;;15.35;77.44
80712;BME280;70078;51.596;5.678;2023-10-08T05:46:11;102254.31;;;15.01;77.48
80712;BME280;70078;51.596;5.678;2023-10-08T05:48:50;102263.63;;;14.88;77.73
80712;BME280;70078;51.596;5.678;2023-10-08T05:51:42;102316.56;;;15.14;77.87
80712;BME280;70078;51.596;5.678;2023-10-08T05:56:55;102294.47;;;15.02;77.83
80712;BME280;70078;51.596;5.678;2023-10-08T05:59:46;102323.50;;;15.24;77.33
80712;BME280;70078;51.596;5.678;2023-10-08T06:02:27;102295.00;;;15.06;77.51
80712;BME280;70078;51.596;5.678;2023-10-08T06:05:13;102299.09;;;15.18;77.40
80712;BME280;70078;51.596;5.678;2023-10-08T06:10:16;102286.59;;;15.09;77.38
80712;BME280;70078;51.596;5.678;2023-10-08T06:13:10;102312.91;;;15.23;77.26
80712;BME280;70078;51.596;5.678;2023-10-08T06:15:43;102312.53;;;15.18;77.51
80712;BME280;70078;51.596;5.678;2023-10-08T06:18:31;102301.44;;;15.13;77.25
80712;BME280;70078;51.596;5.678;2023-10-08T06:23:29;102329.59;;;15.26;77.37
80712;BME280;70078;51.596;5.678;2023-10-08T06:25:58;102330.72;;;15.24;77.81
80712;BME280;70078;51.596;5.678;2023-10-08T06:28:31;102290.47;;;15.06;77.66
80712;BME280;70078;51.596;5.678;2023-10-08T06:31:00;102316.97;;;15.27;77.93
80712;BME280;70078;51.596;5.678;2023-10-08T06:33:27;102237.66;;;14.71;78.01
80712;BME280;70078;51.596;5.678;2023-10-08T06:35:59;102298.84;;;15.03;77.77
80712;BME280;70078;51.596;5.678;2023-10-08T06:38:29;102266.53;;;14.95;77.81
80712;BME280;70078;51.596;5.678;2023-10-08T06:41:01;102250.84;;;14.82;77.42
80712;BME280;70078;51.596;5.678;2023-10-08T06:43:40;102316.25;;;15.17;77.64
80712;BME280;70078;51.596;5.678;2023-10-08T06:46:08;102296.91;;;15.13;77.48
80712;BME280;70078;51.596;5.678;2023-10-08T06:48:40;102343.13;;;15.43;77.38
80712;BME280;70078;51.596;5.678;2023-10-08T06:51:09;102309.22;;;15.24;77.39
80712;BME280;70078;51.596;5.678;2023-10-08T06:53:42;102349.19;;;15.45;77.06
80712;BME280;70078;51.596;5.678;2023-10-08T06:56:07;102345.28;;;15.39;77.16
80712;BME280;70078;51.596;5.678;2023-10-08T06:58:37;102376.97;;;15.53;77.25
80712;BME280;70078;51.596;5.678;2023-10-08T07:01:02;102371.91;;;15.50;77.14
80712;BME280;70078;51.596;5.678;2023-10-08T07:03:30;102321.34;;;15.28;76.94
80712;BME280;70078;51.596;5.678;2023-10-08T07:05:58;102367.94;;;15.63;77.13
80712;BME280;70078;51.596;5.678;2023-10-08T07:08:24;102339.28;;;15.53;77.05
80712;BME280;70078;51.596;5.678;2023-10-08T07:10:51;102381.19;;;15.90;76.97
80712;BME280;70078;51.596;5.678;2023-10-08T07:13:17;102383.06;;;15.98;76.53
80712;BME280;70078;51.596;5.678;2023-10-08T07:15:43;102339.38;;;15.70;76.55
80712;BME280;70078;51.596;5.678;2023-10-08T07:18:13;102364.00;;;15.83;76.60
80712;BME280;70078;51.596;5.678;2023-10-08T07:20:43;102380.19;;;15.99;76.31
80712;BME280;70078;51.596;5.678;2023-10-08T07:23:11;102335.63;;;15.63;76.14
80712;BME280;70078;51.596;5.678;2023-10-08T07:26:01;102346.66;;;15.86;76.06
80712;BME280;70078;51.596;5.678;2023-10-08T07:28:49;102351.19;;;15.85;75.79
80712;BME280;70078;51.596;5.678;2023-10-08T07:31:18;102408.53;;;16.12;76.04
80712;BME280;70078;51.596;5.678;2023-10-08T07:33:48;102344.75;;;15.70;75.96
80712;BME280;70078;51.596;5.678;2023-10-08T07:36:20;102366.19;;;15.88;76.16
80712;BME280;70078;51.596;5.678;2023-10-08T07:38:46;102354.91;;;15.84;75.73
80712;BME280;70078;51.596;5.678;2023-10-08T07:41:12;102384.94;;;16.05;75.61
80712;BME280;70078;51.596;5.678;2023-10-08T07:43:40;102399.44;;;16.21;75.83
80712;BME280;70078;51.596;5.678;2023-10-08T07:46:05;102345.16;;;15.91;75.43
80712;BME280;70078;51.596;5.678;2023-10-08T07:48:31;102325.91;;;15.70;75.72
80712;BME280;70078;51.596;5.678;2023-10-08T07:50:57;102329.31;;;15.72;76.12
80712;BME280;70078;51.596;5.678;2023-10-08T07:53:26;102377.31;;;16.01;76.13
80712;BME280;70078;51.596;5.678;2023-10-08T07:56:03;102393.56;;;16.17;76.06
80712;BME280;70078;51.596;5.678;2023-10-08T07:58:29;102419.53;;;16.34;76.50
80712;BME280;70078;51.596;5.678;2023-10-08T08:00:54;102345.50;;;15.88;76.83
80712;BME280;70078;51.596;5.678;2023-10-08T08:03:20;102392.75;;;16.33;76.32
80712;BME280;70078;51.596;5.678;2023-10-08T08:05:47;102424.75;;;16.52;76.18
80712;BME280;70078;51.596;5.678;2023-10-08T08:08:13;102431.53;;;16.56;76.21
80712;BME280;70078;51.596;5.678;2023-10-08T08:10:45;102386.47;;;16.24;76.58
80712;BME280;70078;51.596;5.678;2023-10-08T08:13:11;102377.53;;;16.24;76.65
80712;BME280;70078;51.596;5.678;2023-10-08T08:15:36;102434.22;;;16.64;77.34
80712;BME280;70078;51.596;5.678;2023-10-08T08:18:07;102426.78;;;16.67;77.50
80712;BME280;70078;51.596;5.678;2023-10-08T08:20:34;102373.19;;;16.31;78.26
80712;BME280;70078;51.596;5.678;2023-10-08T08:23:05;102394.75;;;16.47;78.37
80712;BME280;70078;51.596;5.678;2023-10-08T08:25:40;102415.66;;;16.53;79.18
80712;BME280;70078;51.596;5.678;2023-10-08T08:28:21;102451.25;;;16.65;79.45
80712;BME280;70078;51.596;5.678;2023-10-08T08:30:50;102368.31;;;16.26;79.31
80712;BME280;70078;51.596;5.678;2023-10-08T08:33:38;102345.69;;;16.03;79.31
80712;BME280;70078;51.596;5.678;2023-10-08T08:36:24;102454.44;;;16.60;79.45
80712;BME280;70078;51.596;5.678;2023-10-08T08:38:50;102448.88;;;16.62;79.43
80712;BME280;70078;51.596;5.678;2023-10-08T08:41:16;102431.81;;;16.45;79.25
80712;BME280;70078;51.596;5.678;2023-10-08T08:43:53;102476.22;;;16.75;79.14
80712;BME280;70078;51.596;5.678;2023-10-08T08:46:32;102456.28;;;16.68;79.29
80712;BME280;70078;51.596;5.678;2023-10-08T08:49:02;102497.97;;;16.98;78.75
80712;BME280;70078;51.596;5.678;2023-10-08T08:51:29;102413.78;;;16.46;79.14
80712;BME280;70078;51.596;5.678;2023-10-08T08:53:55;102413.78;;;16.46;78.78
80712;BME280;70078;51.596;5.678;2023-10-08T08:56:21;102487.19;;;16.90;79.42
80712;BME280;70078;51.596;5.678;2023-10-08T08:58:49;102473.69;;;16.82;78.60
80712;BME280;70078;51.596;5.678;2023-10-08T09:01:16;102402.16;;;16.37;79.19
80712;BME280;70078;51.596;5.678;2023-10-08T09:03:42;102461.91;;;16.75;79.22
80712;BME280;70078;51.596;5.678;2023-10-08T09:06:08;102426.44;;;16.53;79.28
80712;BME280;70078;51.596;5.678;2023-10-08T09:08:35;102484.66;;;16.97;78.44
80712;BME280;70078;51.596;5.678;2023-10-08T09:11:01;102483.47;;;16.91;78.92
80712;BME280;70078;51.596;5.678;2023-10-08T09:13:27;102423.06;;;16.51;78.78
80712;BME280;70078;51.596;5.678;2023-10-08T09:16:13;102497.66;;;16.93;79.04
80712;BME280;70078;51.596;5.678;2023-10-08T09:18:42;102459.53;;;16.72;78.28
80712;BME280;70078;51.596;5.678;2023-10-08T09:21:10;102488.88;;;16.83;78.44
80712;BME280;70078;51.596;5.678;2023-10-08T09:23:43;102476.00;;;16.69;78.99
80712;BME280;70078;51.596;5.678;2023-10-08T09:26:11;102410.59;;;16.34;78.66
80712;BME280;70078;51.596;5.678;2023-10-08T09:28:39;102470.00;;;16.83;78.06
80712;BME280;70078;51.596;5.678;2023-10-08T09:31:05;102465.59;;;16.82;78.79
80712;BME280;70078;51.596;5.678;2023-10-08T09:33:31;102506.25;;;17.21;77.96
80712;BME280;70078;51.596;5.678;2023-10-08T09:35:58;102503.91;;;17.26;77.96
80712;BME280;70078;51.596;5.678;2023-10-08T09:38:28;102431.22;;;16.84;77.81
80712;BME280;70078;51.596;5.678;2023-10-08T09:40:55;102497.66;;;17.17;77.88
80712;BME280;70078;51.596;5.678;2023-10-08T09:43:22;102488.72;;;17.17;77.72
80712;BME280;70078;51.596;5.678;2023-10-08T09:45:55;102426.00;;;16.74;77.57
80712;BME280;70078;51.596;5.678;2023-10-08T09:48:25;102503.72;;;17.19;77.26
80712;BME280;70078;51.596;5.678;2023-10-08T09:50:53;102478.78;;;17.09;77.64
80712;BME280;70078;51.596;5.678;2023-10-08T09:53:30;102456.34;;;17.17;76.93
80712;BME280;70078;51.596;5.678;2023-10-08T09:55:57;102474.38;;;17.25;76.53
80712;BME280;70078;51.596;5.678;2023-10-08T09:58:24;102435.25;;;17.04;76.13
80712;BME280;70078;51.596;5.678;2023-10-08T10:00:51;102495.59;;;17.36;75.87
80712;BME280;70078;51.596;5.678;2023-10-08T10:03:18;102466.94;;;17.35;75.32
80712;BME280;70078;51.596;5.678;2023-10-08T10:05:45;102430.00;;;17.27;75.29
80712;BME280;70078;51.596;5.678;2023-10-08T10:08:10;102443.66;;;17.26;74.97
80712;BME280;70078;51.596;5.678;2023-10-08T10:10:37;102483.44;;;17.56;75.02
80712;BME280;70078;51.596;5.678;2023-10-08T10:13:11;102464.22;;;17.43;74.61
80712;BME280;70078;51.596;5.678;2023-10-08T10:15:37;102486.97;;;17.65;74.94
80712;BME280;70078;51.596;5.678;2023-10-08T10:18:09;102490.53;;;17.57;74.81
80712;BME280;70078;51.596;5.678;2023-10-08T10:20:47;102479.53;;;17.59;75.08
80712;BME280;70078;51.596;5.678;2023-10-08T10:23:37;102508.88;;;17.86;73.72
80712;BME280;70078;51.596;5.678;2023-10-08T10:26:20;102482.19;;;17.83;73.51
80712;BME280;70078;51.596;5.678;2023-10-08T10:31:44;102509.06;;;17.85;73.20
80712;BME280;70078;51.596;5.678;2023-10-08T10:34:13;102411.47;;;17.16;73.47
80712;BME280;70078;51.596;5.678;2023-10-08T10:36:42;102497.75;;;17.65;73.85
80712;BME280;70078;51.596;5.678;2023-10-08T10:39:08;102478.66;;;17.66;74.00
80712;BME280;70078;51.596;5.678;2023-10-08T10:41:52;102464.50;;;17.64;73.11
80712;BME280;70078;51.596;5.678;2023-10-08T10:44:29;102488.28;;;17.85;73.00
80712;BME280;70078;51.596;5.678;2023-10-08T10:46:55;102511.75;;;17.93;73.02
80712;BME280;70078;51.596;5.678;2023-10-08T10:49:39;102506.91;;;18.11;72.05
80712;BME280;70078;51.596;5.678;2023-10-08T10:52:15;102477.59;;;18.00;71.99
80712;BME280;70078;51.596;5.678;2023-10-08T10:55:04;102476.41;;;18.34;70.81
80712;BME280;70078;51.596;5.678;2023-10-08T10:57:56;102497.16;;;18.41;71.77
80712;BME280;70078;51.596;5.678;2023-10-08T11:00:29;102442.97;;;18.26;70.51
80712;BME280;70078;51.596;5.678;2023-10-08T11:02:58;102477.78;;;18.29;69.83
80712;BME280;70078;51.596;5.678;2023-10-08T11:05:37;102464.38;;;18.36;70.27
80712;BME280;70078;51.596;5.678;2023-10-08T11:08:05;102439.34;;;18.11;69.99
80712;BME280;70078;51.596;5.678;2023-10-08T11:10:38;102483.16;;;18.38;70.48
80712;BME280;70078;51.596;5.678;2023-10-08T11:13:08;102465.97;;;18.30;70.66
80712;BME280;70078;51.596;5.678;2023-10-08T11:15:41;102456.91;;;18.15;70.35
80712;BME280;70078;51.596;5.678;2023-10-08T11:18:09;102451.75;;;18.28;69.92
80712;BME280;70078;51.596;5.678;2023-10-08T11:20:34;102440.00;;;18.13;70.01
80712;BME280;70078;51.596;5.678;2023-10-08T11:23:07;102501.56;;;18.65;69.08
80712;BME280;70078;51.596;5.678;2023-10-08T11:26:07;102463.25;;;18.30;69.94
80712;BME280;70078;51.596;5.678;2023-10-08T11:31:08;102491.22;;;18.46;70.33
80712;BME280;70078;51.596;5.678;2023-10-08T11:33:40;102429.66;;;18.25;69.44
80712;BME280;70078;51.596;5.678;2023-10-08T11:36:08;102462.25;;;18.54;69.78
80712;BME280;70078;51.596;5.678;2023-10-08T11:38:44;102444.28;;;18.39;70.00
80712;BME280;70078;51.596;5.678;2023-10-08T11:41:14;102418.00;;;18.24;70.12
80712;BME280;70078;51.596;5.678;2023-10-08T11:43:56;102457.56;;;18.48;70.53
80712;BME280;70078;51.596;5.678;2023-10-08T11:46:31;102462.06;;;18.56;70.74
80712;BME280;70078;51.596;5.678;2023-10-08T11:49:06;102457.88;;;18.53;70.88
80712;BME280;70078;51.596;5.678;2023-10-08T11:51:35;102480.81;;;18.57;71.14
80712;BME280;70078;51.596;5.678;2023-10-08T11:54:01;102420.75;;;18.16;70.73
80712;BME280;70078;51.596;5.678;2023-10-08T11:56:28;102458.41;;;18.49;71.62
80712;BME280;70078;51.596;5.678;2023-10-08T11:58:54;102438.38;;;18.58;70.66
80712;BME280;70078;51.596;5.678;2023-10-08T12:01:22;102476.72;;;18.93;69.73
80712;BME280;70078;51.596;5.678;2023-10-08T12:03:49;102449.34;;;18.88;70.54
80712;BME280;70078;51.596;5.678;2023-10-08T12:06:15;102436.19;;;18.84;70.11
80712;BME280;70078;51.596;5.678;2023-10-08T12:08:46;102450.13;;;18.96;69.77
80712;BME280;70078;51.596;5.678;2023-10-08T12:11:13;102428.06;;;18.84;69.69
80712;BME280;70078;51.596;5.678;2023-10-08T12:13:42;102421.06;;;18.75;69.32
80712;BME280;70078;51.596;5.678;2023-10-08T12:16:12;102446.22;;;18.99;69.59
80712;BME280;70078;51.596;5.678;2023-10-08T12:18:43;102455.03;;;19.16;69.62
80712;BME280;70078;51.596;5.678;2023-10-08T12:21:09;102420.28;;;19.19;69.41
80712;BME280;70078;51.596;5.678;2023-10-08T12:23:40;102455.72;;;19.47;68.94
80712;BME280;70078;51.596;5.678;2023-10-08T12:26:08;102454.97;;;19.38;68.66
80712;BME280;70078;51.596;5.678;2023-10-08T12:28:35;102396.78;;;19.05;68.92
80712;BME280;70078;51.596;5.678;2023-10-08T12:31:02;102374.78;;;18.85;69.17
80712;BME280;70078;51.596;5.678;2023-10-08T12:33:29;102430.78;;;19.22;68.18
80712;BME280;70078;51.596;5.678;2023-10-08T12:35:55;102456.09;;;19.29;68.48
80712;BME280;70078;51.596;5.678;2023-10-08T12:38:22;102420.28;;;19.04;68.43
80712;BME280;70078;51.596;5.678;2023-10-08T12:40:51;102451.03;;;19.26;68.81
80712;BME280;70078;51.596;5.678;2023-10-08T12:45:48;102454.09;;;19.23;68.41
80712;BME280;70078;51.596;5.678;2023-10-08T12:48:19;102450.06;;;19.19;69.16
80712;BME280;70078;51.596;5.678;2023-10-08T12:50:45;102433.25;;;19.09;69.14
80712;BME280;70078;51.596;5.678;2023-10-08T12:53:11;102431.41;;;19.24;69.00
80712;BME280;70078;51.596;5.678;2023-10-08T12:55:40;102422.13;;;19.04;69.50
80712;BME280;70078;51.596;5.678;2023-10-08T12:58:08;102432.41;;;19.08;70.04
80712;BME280;70078;51.596;5.678;2023-10-08T13:00:39;102394.16;;;18.97;69.73
80712;BME280;70078;51.596;5.678;2023-10-08T13:03:07;102403.44;;;18.94;70.13
80712;BME280;70078;51.596;5.678;2023-10-08T13:05:41;102374.91;;;18.92;69.82
80712;BME280;70078;51.596;5.678;2023-10-08T13:08:09;102375.00;;;18.98;69.91
80712;BME280;70078;51.596;5.678;2023-10-08T13:10:35;102389.22;;;19.15;69.59
80712;BME280;70078;51.596;5.678;2023-10-08T13:13:04;102378.69;;;19.20;69.53
80712;BME280;70078;51.596;5.678;2023-10-08T13:15:30;102382.47;;;19.11;69.95
80712;BME280;70078;51.596;5.678;2023-10-08T13:18:00;102399.41;;;19.43;69.45
80712;BME280;70078;51.596;5.678;2023-10-08T13:20:28;102380.34;;;19.36;69.66
80712;BME280;70078;51.596;5.678;2023-10-08T13:22:58;102361.84;;;19.39;69.78
80712;BME280;70078;51.596;5.678;2023-10-08T13:25:24;102340.09;;;19.48;69.65